sensor_id;sensor_type;location;lat;lon;timestamp;temperature;humidity
3866;DHT22;1948;53.250;10.412;2022-12-18T00:00:00;-4.30;99.90
3866;DHT22;1948;53.250;10.412;2022-12-18T00:02:27;-4.30;99.90
3866;DHT22;1948;53.250;10.412;2022-12-18T00:04:54;-4.30;99.90
3866;DHT22;1948;53.250;10.412;2022-12-18T00:07:25;-4.40;99.90
3866;DHT22;1948;53.250;10.412;2022-12-18T00:09:52;-4.40;99.90
3866;DHT22;1948;53.250;10.412;2022-12-18T00:12:19;-4.40;99.90
3866;DHT22;1948;53.250;10.412;2022-12-18T00:14:46;-4.50;99.90
3866;DHT22;1948;53.250;10.412;2022-12-18T00:17:13;-4.50;99.90
3866;DHT22;1948;53.250;10.412;2022-12-18T00:19:40;-4.60;99.90
3866;DHT22;1948;53.250;10.412;2022-12-18T00:22:07;-4.60;99.90
3866;DHT22;1948;53.250;10.412;2022-12-18T00:24:34;-4.60;99.90
3866;DHT22;1948;53.250;10.412;2022-12-18T00:27:03;-4.60;99.90
3866;DHT22;1948;53.250;10.412;2022-12-18T00:29:32;-4.60;99.90
3866;DHT22;1948;53.250;10.412;2022-12-18T00:31:59;-4.60;99.90
3866;DHT22;1948;53.250;10.412;2022-12-18T00:34:29;-4.60;99.90
3866;DHT22;1948;53.250;10.412;2022-12-18T00:36:56;-4.50;99.90
3866;DHT22;1948;53.250;10.412;2022-12-18T00:39:22;-4.60;99.90
3866;DHT22;1948;53.250;10.412;2022-12-18T00:41:52;-4.60;99.90
3866;DHT22;1948;53.250;10.412;2022-12-18T00:44:37;-4.60;99.90
3866;DHT22;1948;53.250;10.412;2022-12-18T00:47:04;-4.70;99.90
3866;DHT22;1948;53.250;10.412;2022-12-18T00:49:31;-4.70;99.90
3866;DHT22;1948;53.250;10.412;2022-12-18T00:52:00;-4.70;99.90
3866;DHT22;1948;53.250;10.412;2022-12-18T00:54:32;-4.70;99.90
3866;DHT22;1948;53.250;10.412;2022-12-18T00:56:59;-4.70;99.90
3866;DHT22;1948;53.250;10.412;2022-12-18T00:59:29;-4.70;99.90
3866;DHT22;1948;53.250;10.412;2022-12-18T01:01:59;-4.80;99.90
3866;DHT22;1948;53.250;10.412;2022-12-18T01:04:31;-4.80;99.90
3866;DHT22;1948;53.250;10.412;2022-12-18T01:06:58;-4.80;99.90
3866;DHT22;1948;53.250;10.412;2022-12-18T01:09:25;-4.80;99.90
3866;DHT22;1948;53.250;10.412;2022-12-18T01:11:52;-4.80;99.90
3866;DHT22;1948;53.250;10.412;2022-12-18T01:14:25;-4.80;99.90
3866;DHT22;1948;53.250;10.412;2022-12-18T01:16:52;-4.90;99.90
3866;DHT22;1948;53.250;10.412;2022-12-18T01:19:24;-4.90;99.90
3866;DHT22;1948;53.250;10.412;2022-12-18T01:21:51;-4.90;99.90
3866;DHT22;1948;53.250;10.412;2022-12-18T01:24:20;-4.90;99.90
3866;DHT22;1948;53.250;10.412;2022-12-18T01:26:47;-5.00;99.90
3866;DHT22;1948;53.250;10.412;2022-12-18T01:29:14;-5.00;99.90
3866;DHT22;1948;53.250;10.412;2022-12-18T01:31:41;-5.00;99.90
3866;DHT22;1948;53.250;10.412;2022-12-18T01:34:11;-5.00;99.90
3866;DHT22;1948;53.250;10.412;2022-12-18T01:36:38;-5.00;99.90
3866;DHT22;1948;53.250;10.412;2022-12-18T01:39:14;-5.00;99.90
3866;DHT22;1948;53.250;10.412;2022-12-18T01:41:46;-5.00;99.90
3866;DHT22;1948;53.250;10.412;2022-12-18T01:47:36;-5.00;99.90
3866;DHT22;1948;53.250;10.412;2022-12-18T01:50:18;-4.80;99.90
3866;DHT22;1948;53.250;10.412;2022-12-18T01:53:10;-4.90;99.90
3866;DHT22;1948;53.250;10.412;2022-12-18T01:55:43;-5.00;99.90
3866;DHT22;1948;53.250;10.412;2022-12-18T01:58:16;-5.00;99.90
3866;DHT22;1948;53.250;10.412;2022-12-18T02:00:44;-5.10;99.90
3866;DHT22;1948;53.250;10.412;2022-12-18T02:03:12;-5.10;99.90
3866;DHT22;1948;53.250;10.412;2022-12-18T02:05:47;-5.10;99.90
3866;DHT22;1948;53.250;10.412;2022-12-18T02:08:35;-5.10;99.90
3866;DHT22;1948;53.250;10.412;2022-12-18T02:11:44;-5.10;99.90
3866;DHT22;1948;53.250;10.412;2022-12-18T02:17:56;-5.30;99.90
3866;DHT22;1948;53.250;10.412;2022-12-18T02:28:36;-5.30;99.90
3866;DHT22;1948;53.250;10.412;2022-12-18T02:31:13;-5.40;99.90
3866;DHT22;1948;53.250;10.412;2022-12-18T02:33:54;-5.40;99.90
3866;DHT22;1948;53.250;10.412;2022-12-18T02:36:31;-5.40;99.90
3866;DHT22;1948;53.250;10.412;2022-12-18T02:39:05;-5.40;99.90
3866;DHT22;1948;53.250;10.412;2022-12-18T02:41:35;-5.50;99.90
3866;DHT22;1948;53.250;10.412;2022-12-18T02:44:08;-5.40;99.90
3866;DHT22;1948;53.250;10.412;2022-12-18T02:49:36;-5.50;99.90
3866;DHT22;1948;53.250;10.412;2022-12-18T02:57:55;-5.50;99.90
3866;DHT22;1948;53.250;10.412;2022-12-18T03:03:47;-5.50;99.90
3866;DHT22;1948;53.250;10.412;2022-12-18T03:09:00;-5.40;99.90
3866;DHT22;1948;53.250;10.412;2022-12-18T03:11:32;-5.40;99.90
3866;DHT22;1948;53.250;10.412;2022-12-18T03:14:23;-5.40;99.90
3866;DHT22;1948;53.250;10.412;2022-12-18T03:16:56;-5.40;99.90
3866;DHT22;1948;53.250;10.412;2022-12-18T03:19:29;-5.40;99.90
3866;DHT22;1948;53.250;10.412;2022-12-18T03:22:03;-5.40;99.90
3866;DHT22;1948;53.250;10.412;2022-12-18T03:24:33;-5.40;99.90
3866;DHT22;1948;53.250;10.412;2022-12-18T03:27:05;-5.40;99.90
3866;DHT22;1948;53.250;10.412;2022-12-18T03:29:40;-5.50;99.90
3866;DHT22;1948;53.250;10.412;2022-12-18T03:32:25;-5.50;99.90
3866;DHT22;1948;53.250;10.412;2022-12-18T03:35:03;-5.60;99.90
3866;DHT22;1948;53.250;10.412;2022-12-18T03:37:35;-5.60;99.90
3866;DHT22;1948;53.250;10.412;2022-12-18T03:40:03;-5.60;99.90
3866;DHT22;1948;53.250;10.412;2022-12-18T03:45:34;-5.60;99.90
3866;DHT22;1948;53.250;10.412;2022-12-18T03:50:59;-5.60;99.90
3866;DHT22;1948;53.250;10.412;2022-12-18T03:54:00;-5.60;99.90
3866;DHT22;1948;53.250;10.412;2022-12-18T03:56:33;-5.70;99.90
3866;DHT22;1948;53.250;10.412;2022-12-18T03:59:04;-5.70;99.90
3866;DHT22;1948;53.250;10.412;2022-12-18T04:01:35;-5.70;99.90
3866;DHT22;1948;53.250;10.412;2022-12-18T04:04:13;-5.70;99.90
3866;DHT22;1948;53.250;10.412;2022-12-18T04:06:42;-5.70;99.90
3866;DHT22;1948;53.250;10.412;2022-12-18T04:09:10;-5.70;99.90
3866;DHT22;1948;53.250;10.412;2022-12-18T04:11:37;-5.70;99.90
3866;DHT22;1948;53.250;10.412;2022-12-18T04:14:06;-5.70;99.90
3866;DHT22;1948;53.250;10.412;2022-12-18T04:16:36;-5.60;99.90
3866;DHT22;1948;53.250;10.412;2022-12-18T04:19:05;-5.70;99.90
3866;DHT22;1948;53.250;10.412;2022-12-18T04:21:32;-5.80;99.90
3866;DHT22;1948;53.250;10.412;2022-12-18T04:23:59;-5.80;99.90
3866;DHT22;1948;53.250;10.412;2022-12-18T04:26:29;-5.90;99.90
3866;DHT22;1948;53.250;10.412;2022-12-18T04:28:56;-5.90;99.90
3866;DHT22;1948;53.250;10.412;2022-12-18T04:31:26;-5.90;99.90
3866;DHT22;1948;53.250;10.412;2022-12-18T04:33:53;-5.90;99.90
3866;DHT22;1948;53.250;10.412;2022-12-18T04:36:28;-5.90;99.90
3866;DHT22;1948;53.250;10.412;2022-12-18T04:38:55;-6.00;99.90
3866;DHT22;1948;53.250;10.412;2022-12-18T04:41:22;-6.00;99.90
3866;DHT22;1948;53.250;10.412;2022-12-18T04:43:52;-6.00;99.90
3866;DHT22;1948;53.250;10.412;2022-12-18T04:46:18;-6.10;99.90
3866;DHT22;1948;53.250;10.412;2022-12-18T04:48:46;-6.10;99.90
3866;DHT22;1948;53.250;10.412;2022-12-18T04:51:16;-6.20;99.90
3866;DHT22;1948;53.250;10.412;2022-12-18T04:53:48;-6.20;99.90
3866;DHT22;1948;53.250;10.412;2022-12-18T04:56:16;-6.20;99.90
3866;DHT22;1948;53.250;10.412;2022-12-18T04:58:46;-6.20;99.90
3866;DHT22;1948;53.250;10.412;2022-12-18T05:01:17;-6.20;99.90
3866;DHT22;1948;53.250;10.412;2022-12-18T05:03:47;-6.20;99.90
3866;DHT22;1948;53.250;10.412;2022-12-18T05:06:14;-6.20;99.90
3866;DHT22;1948;53.250;10.412;2022-12-18T05:08:41;-6.20;99.90
3866;DHT22;1948;53.250;10.412;2022-12-18T05:11:11;-6.20;99.90
3866;DHT22;1948;53.250;10.412;2022-12-18T05:13:45;-6.30;99.90
3866;DHT22;1948;53.250;10.412;2022-12-18T05:16:14;-6.30;99.90
3866;DHT22;1948;53.250;10.412;2022-12-18T05:18:44;-6.30;99.90
3866;DHT22;1948;53.250;10.412;2022-12-18T05:21:11;-6.30;99.90
3866;DHT22;1948;53.250;10.412;2022-12-18T05:23:38;-6.30;99.90
3866;DHT22;1948;53.250;10.412;2022-12-18T05:26:06;-6.30;99.90
3866;DHT22;1948;53.250;10.412;2022-12-18T05:28:36;-6.40;99.90
3866;DHT22;1948;53.250;10.412;2022-12-18T05:31:03;-6.40;99.90
3866;DHT22;1948;53.250;10.412;2022-12-18T05:33:33;-6.30;99.90
3866;DHT22;1948;53.250;10.412;2022-12-18T05:36:05;-6.30;99.90
3866;DHT22;1948;53.250;10.412;2022-12-18T05:38:34;-6.30;99.90
3866;DHT22;1948;53.250;10.412;2022-12-18T05:41:03;-6.30;99.90
3866;DHT22;1948;53.250;10.412;2022-12-18T05:43:31;-6.30;99.90
3866;DHT22;1948;53.250;10.412;2022-12-18T05:45:57;-6.30;99.90
3866;DHT22;1948;53.250;10.412;2022-12-18T05:48:24;-6.30;99.90
3866;DHT22;1948;53.250;10.412;2022-12-18T05:50:54;-6.30;99.90
3866;DHT22;1948;53.250;10.412;2022-12-18T05:53:23;-6.30;99.90
3866;DHT22;1948;53.250;10.412;2022-12-18T05:55:50;-6.30;99.90
3866;DHT22;1948;53.250;10.412;2022-12-18T05:58:16;-6.40;99.90
3866;DHT22;1948;53.250;10.412;2022-12-18T06:00:46;-6.50;99.90
3866;DHT22;1948;53.250;10.412;2022-12-18T06:03:15;-6.40;99.90
3866;DHT22;1948;53.250;10.412;2022-12-18T06:05:44;-6.40;99.90
3866;DHT22;1948;53.250;10.412;2022-12-18T06:08:12;-6.30;99.90
3866;DHT22;1948;53.250;10.412;2022-12-18T06:10:40;-6.40;99.90
3866;DHT22;1948;53.250;10.412;2022-12-18T06:13:07;-6.40;99.90
3866;DHT22;1948;53.250;10.412;2022-12-18T06:15:40;-6.40;99.90
3866;DHT22;1948;53.250;10.412;2022-12-18T06:18:07;-6.50;99.90
3866;DHT22;1948;53.250;10.412;2022-12-18T06:20:34;-6.50;99.90
3866;DHT22;1948;53.250;10.412;2022-12-18T06:23:05;-6.60;99.90
3866;DHT22;1948;53.250;10.412;2022-12-18T06:25:32;-6.60;99.90
3866;DHT22;1948;53.250;10.412;2022-12-18T06:28:02;-6.60;99.90
3866;DHT22;1948;53.250;10.412;2022-12-18T06:30:30;-6.60;99.90
3866;DHT22;1948;53.250;10.412;2022-12-18T06:32:59;-6.70;99.90
3866;DHT22;1948;53.250;10.412;2022-12-18T06:35:28;-6.70;99.90
3866;DHT22;1948;53.250;10.412;2022-12-18T06:37:55;-6.60;99.90
3866;DHT22;1948;53.250;10.412;2022-12-18T06:40:22;-6.70;99.90
3866;DHT22;1948;53.250;10.412;2022-12-18T06:42:51;-6.70;99.90
3866;DHT22;1948;53.250;10.412;2022-12-18T06:45:21;-6.70;99.90
3866;DHT22;1948;53.250;10.412;2022-12-18T06:47:48;-6.70;99.90
3866;DHT22;1948;53.250;10.412;2022-12-18T06:50:15;-6.70;99.90
3866;DHT22;1948;53.250;10.412;2022-12-18T06:52:44;-6.70;99.90
3866;DHT22;1948;53.250;10.412;2022-12-18T06:55:14;-6.70;99.90
3866;DHT22;1948;53.250;10.412;2022-12-18T06:57:41;-6.80;99.90
3866;DHT22;1948;53.250;10.412;2022-12-18T07:00:08;-6.80;99.90
3866;DHT22;1948;53.250;10.412;2022-12-18T07:02:36;-6.80;99.90
3866;DHT22;1948;53.250;10.412;2022-12-18T07:05:03;-6.80;99.90
3866;DHT22;1948;53.250;10.412;2022-12-18T07:07:36;-6.90;99.90
3866;DHT22;1948;53.250;10.412;2022-12-18T07:10:04;-6.90;99.90
3866;DHT22;1948;53.250;10.412;2022-12-18T07:12:34;-6.90;99.90
3866;DHT22;1948;53.250;10.412;2022-12-18T07:15:04;-6.90;99.90
3866;DHT22;1948;53.250;10.412;2022-12-18T07:17:36;-6.90;99.90
3866;DHT22;1948;53.250;10.412;2022-12-18T07:20:04;-6.90;99.90
3866;DHT22;1948;53.250;10.412;2022-12-18T07:22:31;-6.90;99.90
3866;DHT22;1948;53.250;10.412;2022-12-18T07:24:58;-6.90;99.90
3866;DHT22;1948;53.250;10.412;2022-12-18T07:27:27;-6.80;99.90
3866;DHT22;1948;53.250;10.412;2022-12-18T07:29:57;-6.90;99.90
3866;DHT22;1948;53.250;10.412;2022-12-18T07:32:24;-6.90;99.90
3866;DHT22;1948;53.250;10.412;2022-12-18T07:34:51;-6.90;99.90
3866;DHT22;1948;53.250;10.412;2022-12-18T07:37:18;-6.80;99.90
3866;DHT22;1948;53.250;10.412;2022-12-18T07:39:47;-6.90;99.90
3866;DHT22;1948;53.250;10.412;2022-12-18T07:42:18;-6.90;99.90
3866;DHT22;1948;53.250;10.412;2022-12-18T07:44:59;-6.80;99.90
3866;DHT22;1948;53.250;10.412;2022-12-18T07:47:29;-6.80;99.90
3866;DHT22;1948;53.250;10.412;2022-12-18T07:50:04;-6.70;99.90
3866;DHT22;1948;53.250;10.412;2022-12-18T07:52:33;-6.70;99.90
3866;DHT22;1948;53.250;10.412;2022-12-18T07:55:04;-6.60;99.90
3866;DHT22;1948;53.250;10.412;2022-12-18T07:57:35;-6.70;99.90
3866;DHT22;1948;53.250;10.412;2022-12-18T08:00:22;-6.70;99.90
3866;DHT22;1948;53.250;10.412;2022-12-18T08:02:52;-6.60;99.90
3866;DHT22;1948;53.250;10.412;2022-12-18T08:05:20;-6.20;99.90
3866;DHT22;1948;53.250;10.412;2022-12-18T08:07:47;-6.00;99.90
3866;DHT22;1948;53.250;10.412;2022-12-18T08:10:15;-5.20;99.90
3866;DHT22;1948;53.250;10.412;2022-12-18T08:12:42;-4.30;99.90
3866;DHT22;1948;53.250;10.412;2022-12-18T08:15:10;-3.80;99.90
3866;DHT22;1948;53.250;10.412;2022-12-18T08:17:37;-3.00;99.90
3866;DHT22;1948;53.250;10.412;2022-12-18T08:20:07;-2.40;99.90
3866;DHT22;1948;53.250;10.412;2022-12-18T08:22:35;-1.70;99.90
3866;DHT22;1948;53.250;10.412;2022-12-18T08:25:08;-1.40;99.90
3866;DHT22;1948;53.250;10.412;2022-12-18T08:27:36;-0.90;99.90
3866;DHT22;1948;53.250;10.412;2022-12-18T08:30:03;-0.20;99.90
3866;DHT22;1948;53.250;10.412;2022-12-18T08:32:34;0.40;99.90
3866;DHT22;1948;53.250;10.412;2022-12-18T08:35:03;1.00;99.90
3866;DHT22;1948;53.250;10.412;2022-12-18T08:37:34;1.50;99.90
3866;DHT22;1948;53.250;10.412;2022-12-18T08:40:01;1.40;99.90
3866;DHT22;1948;53.250;10.412;2022-12-18T08:42:33;1.50;99.90
3866;DHT22;1948;53.250;10.412;2022-12-18T08:45:21;1.80;99.90
3866;DHT22;1948;53.250;10.412;2022-12-18T08:47:48;2.40;99.90
3866;DHT22;1948;53.250;10.412;2022-12-18T08:50:15;2.60;99.90
3866;DHT22;1948;53.250;10.412;2022-12-18T08:52:43;3.40;99.90
3866;DHT22;1948;53.250;10.412;2022-12-18T08:55:10;3.20;99.90
3866;DHT22;1948;53.250;10.412;2022-12-18T08:57:36;3.50;99.90
3866;DHT22;1948;53.250;10.412;2022-12-18T09:00:04;4.40;99.90
3866;DHT22;1948;53.250;10.412;2022-12-18T09:02:34;4.70;99.90
3866;DHT22;1948;53.250;10.412;2022-12-18T09:05:01;5.00;99.90
3866;DHT22;1948;53.250;10.412;2022-12-18T09:07:31;5.60;99.90
3866;DHT22;1948;53.250;10.412;2022-12-18T09:09:58;6.30;99.00
3866;DHT22;1948;53.250;10.412;2022-12-18T09:12:25;6.00;97.30
3866;DHT22;1948;53.250;10.412;2022-12-18T09:14:52;6.30;97.80
3866;DHT22;1948;53.250;10.412;2022-12-18T09:17:19;6.80;96.90
3866;DHT22;1948;53.250;10.412;2022-12-18T09:19:45;7.10;95.40
3866;DHT22;1948;53.250;10.412;2022-12-18T09:22:17;7.00;94.90
3866;DHT22;1948;53.250;10.412;2022-12-18T09:24:46;6.80;94.00
3866;DHT22;1948;53.250;10.412;2022-12-18T09:27:13;7.00;94.70
3866;DHT22;1948;53.250;10.412;2022-12-18T09:29:40;7.50;94.10
3866;DHT22;1948;53.250;10.412;2022-12-18T09:32:12;7.70;93.20
3866;DHT22;1948;53.250;10.412;2022-12-18T09:34:47;7.30;92.50
3866;DHT22;1948;53.250;10.412;2022-12-18T09:37:14;7.30;92.70
3866;DHT22;1948;53.250;10.412;2022-12-18T09:39:44;7.20;92.60
3866;DHT22;1948;53.250;10.412;2022-12-18T09:42:20;7.60;92.60
3866;DHT22;1948;53.250;10.412;2022-12-18T09:44:50;7.70;91.80
3866;DHT22;1948;53.250;10.412;2022-12-18T09:50:04;7.90;91.90
3866;DHT22;1948;53.250;10.412;2022-12-18T09:52:57;8.90;91.20
3866;DHT22;1948;53.250;10.412;2022-12-18T09:55:34;9.70;89.90
3866;DHT22;1948;53.250;10.412;2022-12-18T10:00:36;8.20;90.00
3866;DHT22;1948;53.250;10.412;2022-12-18T10:03:09;9.10;90.00
3866;DHT22;1948;53.250;10.412;2022-12-18T10:09:05;9.90;87.90
3866;DHT22;1948;53.250;10.412;2022-12-18T10:20:45;11.70;80.10
3866;DHT22;1948;53.250;10.412;2022-12-18T10:26:24;11.40;79.80
3866;DHT22;1948;53.250;10.412;2022-12-18T10:28:51;11.10;77.90
3866;DHT22;1948;53.250;10.412;2022-12-18T10:31:22;9.40;79.20
3866;DHT22;1948;53.250;10.412;2022-12-18T10:33:53;7.60;81.40
3866;DHT22;1948;53.250;10.412;2022-12-18T10:36:23;5.90;85.90
3866;DHT22;1948;53.250;10.412;2022-12-18T10:38:53;4.60;90.90
3866;DHT22;1948;53.250;10.412;2022-12-18T10:47:03;2.40;99.90
3866;DHT22;1948;53.250;10.412;2022-12-18T10:49:47;2.90;99.90
3866;DHT22;1948;53.250;10.412;2022-12-18T10:57:36;6.40;99.60
3866;DHT22;1948;53.250;10.412;2022-12-18T11:00:30;7.80;96.30
3866;DHT22;1948;53.250;10.412;2022-12-18T11:02:57;7.40;94.10
3866;DHT22;1948;53.250;10.412;2022-12-18T11:05:32;6.60;94.50
3866;DHT22;1948;53.250;10.412;2022-12-18T11:08:03;6.60;94.90
3866;DHT22;1948;53.250;10.412;2022-12-18T11:10:33;6.60;95.20
3866;DHT22;1948;53.250;10.412;2022-12-18T11:13:19;6.60;94.80
3866;DHT22;1948;53.250;10.412;2022-12-18T11:15:51;6.80;95.40
3866;DHT22;1948;53.250;10.412;2022-12-18T11:18:44;6.60;95.20
3866;DHT22;1948;53.250;10.412;2022-12-18T11:21:12;6.50;95.20
3866;DHT22;1948;53.250;10.412;2022-12-18T11:23:50;7.00;95.70
3866;DHT22;1948;53.250;10.412;2022-12-18T11:26:19;7.70;94.50
3866;DHT22;1948;53.250;10.412;2022-12-18T11:28:52;7.70;93.50
3866;DHT22;1948;53.250;10.412;2022-12-18T11:31:35;7.30;93.80
3866;DHT22;1948;53.250;10.412;2022-12-18T11:34:04;7.40;93.80
3866;DHT22;1948;53.250;10.412;2022-12-18T11:36:55;7.40;94.20
3866;DHT22;1948;53.250;10.412;2022-12-18T11:39:36;7.80;94.00
3866;DHT22;1948;53.250;10.412;2022-12-18T11:42:14;7.90;93.20
3866;DHT22;1948;53.250;10.412;2022-12-18T11:50:24;6.40;94.40
3866;DHT22;1948;53.250;10.412;2022-12-18T11:52:53;5.70;95.10
3866;DHT22;1948;53.250;10.412;2022-12-18T11:55:33;4.90;96.20
3866;DHT22;1948;53.250;10.412;2022-12-18T12:01:13;4.00;99.90
3866;DHT22;1948;53.250;10.412;2022-12-18T12:12:15;4.60;99.90
3866;DHT22;1948;53.250;10.412;2022-12-18T12:21:22;5.30;99.90
3866;DHT22;1948;53.250;10.412;2022-12-18T12:35:59;2.80;99.90
3866;DHT22;1948;53.250;10.412;2022-12-18T12:38:55;2.10;99.90
3866;DHT22;1948;53.250;10.412;2022-12-18T12:41:28;1.60;99.90
3866;DHT22;1948;53.250;10.412;2022-12-18T12:44:31;1.40;99.90
3866;DHT22;1948;53.250;10.412;2022-12-18T12:47:14;1.10;99.90
3866;DHT22;1948;53.250;10.412;2022-12-18T12:49:45;0.80;99.90
3866;DHT22;1948;53.250;10.412;2022-12-18T12:52:39;0.70;99.90
3866;DHT22;1948;53.250;10.412;2022-12-18T12:55:16;0.60;99.90
3866;DHT22;1948;53.250;10.412;2022-12-18T12:58:00;0.40;99.90
3866;DHT22;1948;53.250;10.412;2022-12-18T13:10:12;0.10;99.90
3866;DHT22;1948;53.250;10.412;2022-12-18T13:13:15;-0.10;99.90
3866;DHT22;1948;53.250;10.412;2022-12-18T13:16:06;-0.30;99.90
3866;DHT22;1948;53.250;10.412;2022-12-18T13:18:34;-0.40;99.90
3866;DHT22;1948;53.250;10.412;2022-12-18T13:21:27;-0.50;99.90
3866;DHT22;1948;53.250;10.412;2022-12-18T13:23:56;-0.60;99.90
3866;DHT22;1948;53.250;10.412;2022-12-18T13:26:28;-0.70;99.90
3866;DHT22;1948;53.250;10.412;2022-12-18T13:28:58;-0.60;99.90
3866;DHT22;1948;53.250;10.412;2022-12-18T13:37:42;-0.20;99.90
3866;DHT22;1948;53.250;10.412;2022-12-18T13:46:23;-0.30;99.90
3866;DHT22;1948;53.250;10.412;2022-12-18T13:48:55;-0.50;99.90
3866;DHT22;1948;53.250;10.412;2022-12-18T13:51:57;-0.70;99.90
3866;DHT22;1948;53.250;10.412;2022-12-18T13:54:33;-0.80;99.90
3866;DHT22;1948;53.250;10.412;2022-12-18T13:57:04;-0.90;99.90
3866;DHT22;1948;53.250;10.412;2022-12-18T13:59:37;-1.10;99.90
3866;DHT22;1948;53.250;10.412;2022-12-18T14:04:50;-1.20;99.90
3866;DHT22;1948;53.250;10.412;2022-12-18T14:07:22;-1.30;99.90
3866;DHT22;1948;53.250;10.412;2022-12-18T14:09:56;-1.50;99.90
3866;DHT22;1948;53.250;10.412;2022-12-18T14:12:48;-1.60;99.90
3866;DHT22;1948;53.250;10.412;2022-12-18T14:15:45;-1.50;99.90
3866;DHT22;1948;53.250;10.412;2022-12-18T14:21:34;-1.50;99.90
3866;DHT22;1948;53.250;10.412;2022-12-18T14:26:47;-1.60;99.90
3866;DHT22;1948;53.250;10.412;2022-12-18T14:29:25;-1.70;99.90
3866;DHT22;1948;53.250;10.412;2022-12-18T14:37:17;-2.00;99.90
3866;DHT22;1948;53.250;10.412;2022-12-18T14:39:55;-2.00;99.90
3866;DHT22;1948;53.250;10.412;2022-12-18T14:42:29;-2.10;99.90
3866;DHT22;1948;53.250;10.412;2022-12-18T14:48:24;-2.10;99.90
3866;DHT22;1948;53.250;10.412;2022-12-18T14:51:17;-2.00;99.90
3866;DHT22;1948;53.250;10.412;2022-12-18T14:53:53;-2.10;99.90
3866;DHT22;1948;53.250;10.412;2022-12-18T14:56:30;-2.10;99.90
3866;DHT22;1948;53.250;10.412;2022-12-18T14:59:03;-2.10;99.90
3866;DHT22;1948;53.250;10.412;2022-12-18T15:01:37;-2.20;99.90
3866;DHT22;1948;53.250;10.412;2022-12-18T15:09:33;-2.30;99.90
3866;DHT22;1948;53.250;10.412;2022-12-18T15:12:04;-2.30;99.90
3866;DHT22;1948;53.250;10.412;2022-12-18T15:14:49;-2.30;99.90
3866;DHT22;1948;53.250;10.412;2022-12-18T15:17:22;-2.20;99.90
3866;DHT22;1948;53.250;10.412;2022-12-18T15:19:58;-2.30;99.90
3866;DHT22;1948;53.250;10.412;2022-12-18T15:22:34;-2.30;99.90
3866;DHT22;1948;53.250;10.412;2022-12-18T15:25:20;-2.40;99.90
3866;DHT22;1948;53.250;10.412;2022-12-18T15:27:55;-2.40;99.90
3866;DHT22;1948;53.250;10.412;2022-12-18T15:30:26;-2.50;99.90
3866;DHT22;1948;53.250;10.412;2022-12-18T15:33:22;-2.50;99.90
3866;DHT22;1948;53.250;10.412;2022-12-18T15:36:04;-2.60;99.90
3866;DHT22;1948;53.250;10.412;2022-12-18T15:38:36;-2.70;99.90
3866;DHT22;1948;53.250;10.412;2022-12-18T15:41:04;-2.70;99.90
3866;DHT22;1948;53.250;10.412;2022-12-18T15:43:41;-2.70;99.90
3866;DHT22;1948;53.250;10.412;2022-12-18T15:46:12;-2.70;99.90
3866;DHT22;1948;53.250;10.412;2022-12-18T15:48:42;-2.70;99.90
3866;DHT22;1948;53.250;10.412;2022-12-18T15:51:16;-2.70;99.90
3866;DHT22;1948;53.250;10.412;2022-12-18T15:53:44;-2.70;99.90
3866;DHT22;1948;53.250;10.412;2022-12-18T15:56:16;-2.80;99.90
3866;DHT22;1948;53.250;10.412;2022-12-18T15:59:04;-2.80;99.90
3866;DHT22;1948;53.250;10.412;2022-12-18T16:01:39;-2.80;99.90
3866;DHT22;1948;53.250;10.412;2022-12-18T16:04:12;-2.80;99.90
3866;DHT22;1948;53.250;10.412;2022-12-18T16:06:46;-2.80;99.90
3866;DHT22;1948;53.250;10.412;2022-12-18T16:09:34;-2.80;99.90
3866;DHT22;1948;53.250;10.412;2022-12-18T16:12:03;-2.80;99.90
3866;DHT22;1948;53.250;10.412;2022-12-18T16:14:41;-2.80;99.90
3866;DHT22;1948;53.250;10.412;2022-12-18T16:17:10;-2.80;99.90
3866;DHT22;1948;53.250;10.412;2022-12-18T16:19:39;-2.70;99.90
3866;DHT22;1948;53.250;10.412;2022-12-18T16:22:24;-2.70;99.90
3866;DHT22;1948;53.250;10.412;2022-12-18T16:24:55;-2.70;99.90
3866;DHT22;1948;53.250;10.412;2022-12-18T16:27:24;-2.70;99.90
3866;DHT22;1948;53.250;10.412;2022-12-18T16:29:54;-2.70;99.90
3866;DHT22;1948;53.250;10.412;2022-12-18T16:32:22;-2.80;99.90
3866;DHT22;1948;53.250;10.412;2022-12-18T16:34:50;-2.70;99.90
3866;DHT22;1948;53.250;10.412;2022-12-18T16:37:17;-2.70;99.90
3866;DHT22;1948;53.250;10.412;2022-12-18T16:39:45;-2.70;99.90
3866;DHT22;1948;53.250;10.412;2022-12-18T16:42:19;-2.60;99.90
3866;DHT22;1948;53.250;10.412;2022-12-18T16:44:48;-2.60;99.90
3866;DHT22;1948;53.250;10.412;2022-12-18T16:47:19;-2.60;99.90
3866;DHT22;1948;53.250;10.412;2022-12-18T16:49:46;-2.50;99.90
3866;DHT22;1948;53.250;10.412;2022-12-18T16:52:18;-2.50;99.90
3866;DHT22;1948;53.250;10.412;2022-12-18T16:54:46;-2.60;99.90
3866;DHT22;1948;53.250;10.412;2022-12-18T16:57:16;-2.50;99.90
3866;DHT22;1948;53.250;10.412;2022-12-18T16:59:51;-2.60;99.90
3866;DHT22;1948;53.250;10.412;2022-12-18T17:02:22;-2.60;99.90
3866;DHT22;1948;53.250;10.412;2022-12-18T17:04:57;-2.50;99.90
3866;DHT22;1948;53.250;10.412;2022-12-18T17:07:27;-2.50;99.90
3866;DHT22;1948;53.250;10.412;2022-12-18T17:09:55;-2.50;99.90
3866;DHT22;1948;53.250;10.412;2022-12-18T17:12:22;-2.50;99.90
3866;DHT22;1948;53.250;10.412;2022-12-18T17:14:55;-2.50;99.90
3866;DHT22;1948;53.250;10.412;2022-12-18T17:17:22;-2.60;99.90
3866;DHT22;1948;53.250;10.412;2022-12-18T17:19:50;-2.50;99.90
3866;DHT22;1948;53.250;10.412;2022-12-18T17:22:19;-2.60;99.90
3866;DHT22;1948;53.250;10.412;2022-12-18T17:24:47;-2.60;99.90
3866;DHT22;1948;53.250;10.412;2022-12-18T17:27:15;-2.60;99.90
3866;DHT22;1948;53.250;10.412;2022-12-18T17:29:42;-2.60;99.90
3866;DHT22;1948;53.250;10.412;2022-12-18T17:32:16;-2.50;99.90
3866;DHT22;1948;53.250;10.412;2022-12-18T17:34:44;-2.50;99.90
3866;DHT22;1948;53.250;10.412;2022-12-18T17:37:12;-2.50;99.90
3866;DHT22;1948;53.250;10.412;2022-12-18T17:39:39;-2.40;99.90
3866;DHT22;1948;53.250;10.412;2022-12-18T17:42:06;-2.40;99.90
3866;DHT22;1948;53.250;10.412;2022-12-18T17:44:41;-2.40;99.90
3866;DHT22;1948;53.250;10.412;2022-12-18T17:47:10;-2.40;99.90
3866;DHT22;1948;53.250;10.412;2022-12-18T17:49:40;-2.40;99.90
3866;DHT22;1948;53.250;10.412;2022-12-18T17:52:08;-2.40;99.90
3866;DHT22;1948;53.250;10.412;2022-12-18T17:54:39;-2.40;99.90
3866;DHT22;1948;53.250;10.412;2022-12-18T17:57:08;-2.40;99.90
3866;DHT22;1948;53.250;10.412;2022-12-18T17:59:36;-2.40;99.90
3866;DHT22;1948;53.250;10.412;2022-12-18T18:02:03;-2.40;99.90
3866;DHT22;1948;53.250;10.412;2022-12-18T18:04:30;-2.40;99.90
3866;DHT22;1948;53.250;10.412;2022-12-18T18:06:58;-2.40;99.90
3866;DHT22;1948;53.250;10.412;2022-12-18T18:09:25;-2.40;99.90
3866;DHT22;1948;53.250;10.412;2022-12-18T18:11:55;-2.30;99.90
3866;DHT22;1948;53.250;10.412;2022-12-18T18:14:41;-2.30;99.90
3866;DHT22;1948;53.250;10.412;2022-12-18T18:17:09;-2.30;99.90
3866;DHT22;1948;53.250;10.412;2022-12-18T18:19:36;-2.30;99.90
3866;DHT22;1948;53.250;10.412;2022-12-18T18:22:09;-2.30;99.90
3866;DHT22;1948;53.250;10.412;2022-12-18T18:24:36;-2.40;99.90
3866;DHT22;1948;53.250;10.412;2022-12-18T18:27:04;-2.40;99.90
3866;DHT22;1948;53.250;10.412;2022-12-18T18:29:31;-2.40;99.90
3866;DHT22;1948;53.250;10.412;2022-12-18T18:31:59;-2.40;99.90
3866;DHT22;1948;53.250;10.412;2022-12-18T18:34:30;-2.40;99.90
3866;DHT22;1948;53.250;10.412;2022-12-18T18:36:59;-2.40;99.90
3866;DHT22;1948;53.250;10.412;2022-12-18T18:39:27;-2.40;99.90
3866;DHT22;1948;53.250;10.412;2022-12-18T18:41:57;-2.40;99.90
3866;DHT22;1948;53.250;10.412;2022-12-18T18:44:25;-2.40;99.90
3866;DHT22;1948;53.250;10.412;2022-12-18T18:46:56;-2.50;99.90